Time;durP1;ratioP1;P1;durP2;ratioP2;P2;SDS_P1;SDS_P2;PMS_P1;PMS_P2;Temp;Humidity;BMP_temperature;BMP_pressure;BME280_temperature;BME280_humidity;BME280_pressure;Samples;Min_cycle;Max_cycle;Signal;HPM_P1;HPM_P2
2021/11/02 00:01:42;;;;;;;1.63;0.80;;;;;;;;;;5024901;28;20049;-54
2021/11/02 00:04:09;;;;;;;1.83;0.70;;;;;;;;;;5022878;28;20048;-55
2021/11/02 00:06:36;;;;;;;1.30;1.23;;;;;;;;;;5021979;28;20076;-55
2021/11/02 00:09:08;;;;;;;0.98;0.80;;;;;;;;;;5027147;28;20045;-51
2021/11/02 00:11:35;;;;;;;3.55;0.75;;;;;;;;;;5016879;28;20056;-55
2021/11/02 00:14:03;;;;;;;0.80;0.80;;;;;;;;;;5023379;28;20045;-55
2021/11/02 00:16:31;;;;;;;1.33;0.80;;;;;;;;;;5030381;28;20042;-53
2021/11/02 00:19:03;;;;;;;2.95;0.80;;;;;;;;;;5022709;28;20046;-55
2021/11/02 00:21:33;;;;;;;1.55;1.45;;;;;;;;;;5029383;28;20037;-54
2021/11/02 00:26:39;;;;;;;1.90;0.80;;;;;;;;;;5021929;28;20083;-55
2021/11/02 00:29:07;;;;;;;0.80;0.80;;;;;;;;;;5029820;28;20042;-55
2021/11/02 00:31:35;;;;;;;1.35;0.73;;;;;;;;;;5027103;28;20428;-55
2021/11/02 00:34:02;;;;;;;0.82;0.80;;;;;;;;;;5028962;28;20037;-55
2021/11/02 00:36:29;;;;;;;0.70;0.70;;;;;;;;;;5027070;28;20045;-55
2021/11/02 00:38:56;;;;;;;1.48;0.80;;;;;;;;;;5031556;28;20077;-54
2021/11/02 00:41:23;;;;;;;0.80;0.80;;;;;;;;;;5027621;28;20099;-54
2021/11/02 00:43:51;;;;;;;1.05;0.90;;;;;;;;;;5030947;28;20053;-54
2021/11/02 00:46:24;;;;;;;0.80;0.80;;;;;;;;;;5026343;28;20536;-53
2021/11/02 00:48:51;;;;;;;0.75;0.75;;;;;;;;;;5028055;28;20052;-55
2021/11/02 00:51:18;;;;;;;0.82;0.80;;;;;;;;;;5031293;28;20083;-55
2021/11/02 00:53:44;;;;;;;0.80;0.80;;;;;;;;;;5025402;28;20065;-56
2021/11/02 00:56:11;;;;;;;0.98;0.90;;;;;;;;;;5029244;28;20057;-55
2021/11/02 00:58:38;;;;;;;2.72;1.05;;;;;;;;;;5030783;28;20099;-55
2021/11/02 01:01:05;;;;;;;1.58;0.90;;;;;;;;;;5029265;28;20044;-56
2021/11/02 01:03:34;;;;;;;1.40;0.90;;;;;;;;;;5016118;28;20042;-55
2021/11/02 01:06:01;;;;;;;1.00;1.00;;;;;;;;;;5022601;28;20053;-53
2021/11/02 01:08:28;;;;;;;1.75;0.80;;;;;;;;;;5018894;28;20050;-55
2021/11/02 01:10:55;;;;;;;0.70;0.70;;;;;;;;;;5018155;28;20108;-55
2021/11/02 01:13:22;;;;;;;1.63;0.80;;;;;;;;;;5026292;28;20038;-54
2021/11/02 01:15:48;;;;;;;0.80;0.80;;;;;;;;;;5013561;28;20034;-55
2021/11/02 01:18:15;;;;;;;0.93;0.82;;;;;;;;;;5026137;28;20112;-55
2021/11/02 01:20:42;;;;;;;2.35;0.80;;;;;;;;;;5029152;28;20087;-54
2021/11/02 01:23:09;;;;;;;0.80;0.80;;;;;;;;;;5026222;28;20033;-56
2021/11/02 01:25:35;;;;;;;1.20;1.15;;;;;;;;;;5025371;28;20076;-55
2021/11/02 01:28:04;;;;;;;0.80;0.70;;;;;;;;;;5013940;28;20038;-55
2021/11/02 01:30:30;;;;;;;0.80;0.80;;;;;;;;;;5028285;28;20420;-55
2021/11/02 01:32:57;;;;;;;2.53;0.70;;;;;;;;;;5027609;28;20049;-54
2021/11/02 01:35:24;;;;;;;0.70;0.70;;;;;;;;;;5025779;28;20397;-52
2021/11/02 01:37:51;;;;;;;4.72;0.82;;;;;;;;;;5024643;28;20121;-54
2021/11/02 01:40:19;;;;;;;0.80;0.80;;;;;;;;;;5023553;28;20041;-54
2021/11/02 01:42:50;;;;;;;1.10;0.70;;;;;;;;;;5029409;28;20579;-55
2021/11/02 01:45:18;;;;;;;0.82;0.70;;;;;;;;;;5024597;28;20050;-54
2021/11/02 01:47:46;;;;;;;2.45;0.80;;;;;;;;;;5029139;28;20043;-55
2021/11/02 01:50:13;;;;;;;1.23;1.13;;;;;;;;;;5027759;28;20114;-55
2021/11/02 01:52:40;;;;;;;1.17;0.70;;;;;;;;;;5026882;28;20569;-54
2021/11/02 01:55:11;;;;;;;3.40;0.80;;;;;;;;;;5029188;28;20051;-55
2021/11/02 01:57:39;;;;;;;1.10;0.80;;;;;;;;;;5027014;28;20084;-55
2021/11/02 02:00:10;;;;;;;1.90;0.80;;;;;;;;;;5022962;28;20049;-54
2021/11/02 02:02:45;;;;;;;1.45;0.70;;;;;;;;;;5022449;28;20774;-55
2021/11/02 02:05:27;;;;;;;1.92;0.80;;;;;;;;;;5020122;28;20536;-55
2021/11/02 02:08:12;;;;;;;2.33;1.00;;;;;;;;;;5029411;28;20555;-55
2021/11/02 02:10:45;;;;;;;0.95;0.80;;;;;;;;;;5027504;28;20037;-55
2021/11/02 02:13:12;;;;;;;;;;;;;;;;;;5028927;28;20367;-55
2021/11/02 02:15:40;;;;;;;1.02;0.90;;;;;;;;;;5014856;28;20151;-55
2021/11/02 02:18:10;;;;;;;0.85;0.80;;;;;;;;;;5026947;28;20041;-55
2021/11/02 02:20:51;;;;;;;1.05;0.80;;;;;;;;;;5019274;28;20073;-55
2021/11/02 02:23:27;;;;;;;4.65;0.90;;;;;;;;;;5029249;28;20037;-55
2021/11/02 02:26:12;;;;;;;1.73;0.80;;;;;;;;;;5028380;28;20045;-56
2021/11/02 02:28:42;;;;;;;1.33;0.80;;;;;;;;;;5015446;28;20054;-55
2021/11/02 02:31:11;;;;;;;1.95;0.90;;;;;;;;;;5028282;28;20472;-55
2021/11/02 02:33:42;;;;;;;0.80;0.80;;;;;;;;;;5026663;28;20049;-56
2021/11/02 02:36:09;;;;;;;2.15;0.80;;;;;;;;;;5015309;28;20030;-54
2021/11/02 02:38:38;;;;;;;2.20;0.93;;;;;;;;;;5030450;28;20160;-55
2021/11/02 02:41:06;;;;;;;0.90;0.90;;;;;;;;;;5030928;28;20036;-55
2021/11/02 02:43:36;;;;;;;1.90;0.90;;;;;;;;;;5031558;28;20088;-55
2021/11/02 02:46:04;;;;;;;1.00;1.00;;;;;;;;;;5027286;28;20045;-55
2021/11/02 02:48:32;;;;;;;1.00;1.00;;;;;;;;;;5015761;28;20046;-53
2021/11/02 02:51:01;;;;;;;2.42;1.30;;;;;;;;;;5031212;28;20392;-55
2021/11/02 02:53:28;;;;;;;1.80;1.10;;;;;;;;;;5031672;28;20042;-54
2021/11/02 02:56:00;;;;;;;4.85;1.17;;;;;;;;;;5029945;28;20712;-56
2021/11/02 02:58:34;;;;;;;1.00;1.00;;;;;;;;;;5027075;28;20041;-55
2021/11/02 03:01:01;;;;;;;3.22;0.90;;;;;;;;;;5017631;28;20034;-55
2021/11/02 03:03:30;;;;;;;1.40;0.90;;;;;;;;;;5022466;28;20038;-54
2021/11/02 03:05:59;;;;;;;3.08;1.00;;;;;;;;;;5027715;28;20034;-54
2021/11/02 03:08:26;;;;;;;1.13;1.00;;;;;;;;;;5015277;28;20042;-56
2021/11/02 03:10:53;;;;;;;2.67;0.98;;;;;;;;;;5027604;28;20034;-56
2021/11/02 03:17:28;;;;;;;1.48;1.23;;;;;;;;;;5020169;28;20316;-55
2021/11/02 03:20:36;;;;;;;4.03;1.13;;;;;;;;;;5028939;28;20068;-55
2021/11/02 03:56:11;;;;;;;2.05;1.67;;;;;;;;;;5030271;28;20046;-54
2021/11/02 03:58:35;;;;;;;7.13;2.25;;;;;;;;;;5028792;28;20041;-55
2021/11/02 04:28:18;;;;;;;10.77;4.22;;;;;;;;;;5031083;28;20052;-55
2021/11/02 05:47:29;;;;;;;7.93;1.45;;;;;;;;;;5025850;28;20044;-54
2021/11/02 05:50:16;;;;;;;5.38;1.10;;;;;;;;;;5021069;28;20049;-54
2021/11/02 06:01:02;;;;;;;3.78;1.15;;;;;;;;;;5026927;28;20029;-55
2021/11/02 06:28:01;;;;;;;5.10;1.20;;;;;;;;;;5028099;28;20038;-53
2021/11/02 06:30:40;;;;;;;5.85;2.30;;;;;;;;;;5015396;28;20072;-54
2021/11/02 06:33:17;;;;;;;5.78;1.20;;;;;;;;;;5025304;28;20493;-53
2021/11/02 06:59:49;;;;;;;4.30;1.58;;;;;;;;;;5030989;28;20056;-53
2021/11/02 07:19:31;;;;;;;10.13;1.85;;;;;;;;;;5027809;28;20049;-51
2021/11/02 07:24:39;;;;;;;8.48;1.45;;;;;;;;;;5025818;28;20048;-53
2021/11/02 08:48:04;;;;;;;11.82;3.67;;;;;;;;;;4993375;28;20046;-54
2021/11/02 08:50:38;;;;;;;14.00;2.42;;;;;;;;;;4995747;28;20113;-53
2021/11/02 08:53:06;;;;;;;9.88;1.80;;;;;;;;;;5003697;28;20057;-54
2021/11/02 08:55:34;;;;;;;9.95;3.10;;;;;;;;;;5002092;28;20410;-51
2021/11/02 08:58:02;;;;;;;8.88;2.80;;;;;;;;;;5002182;28;20041;-52
2021/11/02 09:00:29;;;;;;;3.88;1.67;;;;;;;;;;5006560;28;20045;-55
2021/11/02 09:03:08;;;;;;;6.90;2.20;;;;;;;;;;4992649;28;20141;-54
2021/11/02 09:05:36;;;;;;;10.20;1.80;;;;;;;;;;4999257;28;20050;-53
2021/11/02 09:08:05;;;;;;;13.88;3.05;;;;;;;;;;5003657;28;20058;-54
2021/11/02 09:10:32;;;;;;;5.63;2.28;;;;;;;;;;5025621;28;20800;-54
2021/11/02 09:12:59;;;;;;;8.77;1.88;;;;;;;;;;5021531;28;20030;-53
2021/11/02 09:15:27;;;;;;;4.55;2.22;;;;;;;;;;5030194;28;20685;-54
2021/11/02 09:17:55;;;;;;;9.85;1.95;;;;;;;;;;5028723;28;20033;-54
2021/11/02 09:20:23;;;;;;;12.43;2.22;;;;;;;;;;5015212;28;20049;-53
2021/11/02 09:22:49;;;;;;;9.10;1.60;;;;;;;;;;5029001;28;20041;-54
2021/11/02 09:25:16;;;;;;;12.00;2.38;;;;;;;;;;5022754;28;20037;-53
2021/11/02 09:27:44;;;;;;;3.28;1.40;;;;;;;;;;5012056;28;20126;-54
2021/11/02 09:30:12;;;;;;;11.93;2.70;;;;;;;;;;5030144;28;20042;-54
2021/11/02 09:32:44;;;;;;;6.22;1.92;;;;;;;;;;5029264;28;20385;-51
2021/11/02 09:35:12;;;;;;;10.25;2.67;;;;;;;;;;5030499;28;20077;-54
2021/11/02 09:37:41;;;;;;;9.50;2.17;;;;;;;;;;5024977;28;20025;-54
2021/11/02 09:40:44;;;;;;;6.57;1.88;;;;;;;;;;5022232;28;20041;-54
2021/11/02 09:43:12;;;;;;;4.43;1.20;;;;;;;;;;5015503;28;20062;-54
2021/11/02 09:45:51;;;;;;;7.13;2.30;;;;;;;;;;5023251;28;20053;-54
2021/11/02 09:48:37;;;;;;;5.97;1.90;;;;;;;;;;5013561;28;20038;-54
2021/11/02 09:51:07;;;;;;;5.57;2.05;;;;;;;;;;5025752;28;20424;-54
2021/11/02 09:53:53;;;;;;;8.68;2.10;;;;;;;;;;5026775;28;20053;-53
2021/11/02 09:56:36;;;;;;;9.55;2.22;;;;;;;;;;5013286;28;20045;-53
2021/11/02 09:59:16;;;;;;;6.30;1.83;;;;;;;;;;5018691;28;20037;-54
2021/11/02 10:01:53;;;;;;;6.30;2.08;;;;;;;;;;5022441;28;20116;-53
2021/11/02 10:04:43;;;;;;;11.27;1.83;;;;;;;;;;5013683;28;20047;-54
2021/11/02 10:07:25;;;;;;;7.25;1.92;;;;;;;;;;5029539;28;20050;-53
2021/11/02 10:09:59;;;;;;;5.05;1.52;;;;;;;;;;5028049;28;20041;-53
2021/11/02 10:12:35;;;;;;;9.98;1.38;;;;;;;;;;5012629;28;20040;-51
2021/11/02 10:15:10;;;;;;;11.10;1.90;;;;;;;;;;5029086;28;20042;-54
2021/11/02 10:17:57;;;;;;;6.85;1.20;;;;;;;;;;5024155;28;20053;-52
2021/11/02 10:20:24;;;;;;;5.60;1.10;;;;;;;;;;5016097;28;20038;-53
2021/11/02 10:23:38;;;;;;;7.43;1.40;;;;;;;;;;5024719;28;20487;-55
2021/11/02 10:26:23;;;;;;;3.53;1.20;;;;;;;;;;5021939;28;20045;-54
2021/11/02 10:28:58;;;;;;;5.70;1.40;;;;;;;;;;5029497;28;20049;-54
2021/11/02 10:31:35;;;;;;;7.93;1.90;;;;;;;;;;5027004;28;20052;-54
2021/11/02 10:34:20;;;;;;;4.32;1.35;;;;;;;;;;5025808;28;20731;-54
2021/11/02 10:36:53;;;;;;;6.97;1.20;;;;;;;;;;5024207;28;20088;-50
2021/11/02 10:39:24;;;;;;;4.53;1.00;;;;;;;;;;5028311;28;20084;-54
2021/11/02 10:41:55;;;;;;;8.02;1.13;;;;;;;;;;5027223;28;20394;-54
2021/11/02 10:44:41;;;;;;;4.00;1.45;;;;;;;;;;5027672;28;20041;-54
2021/11/02 10:47:13;;;;;;;1.92;1.08;;;;;;;;;;5024670;28;20045;-53
2021/11/02 10:49:40;;;;;;;4.90;1.45;;;;;;;;;;5028930;28;20049;-53
2021/11/02 10:52:07;;;;;;;4.82;1.52;;;;;;;;;;5026172;28;20505;-54
2021/11/02 10:54:37;;;;;;;5.60;1.25;;;;;;;;;;5021739;28;20051;-54
2021/11/02 10:57:05;;;;;;;6.68;1.60;;;;;;;;;;5033814;28;20425;-53
2021/11/02 10:59:32;;;;;;;5.97;2.05;;;;;;;;;;5031641;28;20566;-52
2021/11/02 11:02:04;;;;;;;12.73;8.98;;;;;;;;;;5015827;28;20088;-53
2021/11/02 11:04:35;;;;;;;2.38;1.40;;;;;;;;;;5033573;28;20499;-54
2021/11/02 11:07:02;;;;;;;2.75;1.60;;;;;;;;;;5034867;28;20052;-51
2021/11/02 11:09:30;;;;;;;2.90;1.75;;;;;;;;;;5024082;28;20064;-54
2021/11/02 11:11:59;;;;;;;2.55;1.00;;;;;;;;;;5030114;28;20042;-54
2021/11/02 11:14:30;;;;;;;1.85;1.10;;;;;;;;;;5028725;28;20107;-50
2021/11/02 11:16:58;;;;;;;4.22;1.67;;;;;;;;;;5031115;28;20033;-53
2021/11/02 11:19:27;;;;;;;3.50;1.77;;;;;;;;;;5029162;28;20045;-51
2021/11/02 11:21:56;;;;;;;2.60;1.13;;;;;;;;;;5023740;28;20041;-53
2021/11/02 11:24:41;;;;;;;1.77;1.13;;;;;;;;;;5030721;28;20033;-53
2021/11/02 11:27:08;;;;;;;3.53;1.17;;;;;;;;;;5031375;28;20513;-53
2021/11/02 11:29:47;;;;;;;3.70;1.00;;;;;;;;;;5044515;28;20041;-53
2021/11/02 11:32:15;;;;;;;4.40;1.17;;;;;;;;;;5026794;28;20107;-53
2021/11/02 11:34:44;;;;;;;2.45;0.90;;;;;;;;;;5032381;28;20048;-54
2021/11/02 11:37:12;;;;;;;2.25;1.10;;;;;;;;;;5030722;28;20037;-54
2021/11/02 11:39:41;;;;;;;7.93;1.65;;;;;;;;;;5029127;28;20037;-54
2021/11/02 11:42:12;;;;;;;2.42;1.25;;;;;;;;;;5031323;28;20378;-54
2021/11/02 11:44:42;;;;;;;1.83;1.33;;;;;;;;;;5031025;28;20038;-54
2021/11/02 11:47:11;;;;;;;2.35;1.10;;;;;;;;;;5027673;28;20097;-53
2021/11/02 11:49:39;;;;;;;3.25;1.20;;;;;;;;;;5027963;28;20362;-54
2021/11/02 11:52:07;;;;;;;4.13;1.00;;;;;;;;;;5019210;28;20392;-50
2021/11/02 11:54:47;;;;;;;3.53;1.85;;;;;;;;;;5030117;28;20080;-53
2021/11/02 11:57:15;;;;;;;6.35;1.13;;;;;;;;;;5031415;28;20037;-54
2021/11/02 11:59:45;;;;;;;4.43;1.00;;;;;;;;;;5014295;28;20038;-54
2021/11/02 12:02:24;;;;;;;4.22;1.42;;;;;;;;;;5024699;28;20490;-53
2021/11/02 12:04:53;;;;;;;5.30;0.90;;;;;;;;;;5022441;28;20576;-53
2021/11/02 12:07:23;;;;;;;4.35;1.00;;;;;;;;;;5032294;28;20083;-54
2021/11/02 12:09:50;;;;;;;10.18;1.58;;;;;;;;;;5024841;28;20044;-53
2021/11/02 12:12:22;;;;;;;6.63;1.30;;;;;;;;;;5021779;28;20051;-54
2021/11/02 12:14:51;;;;;;;5.82;2.15;;;;;;;;;;5020854;28;20042;-54
2021/11/02 12:17:20;;;;;;;4.97;1.27;;;;;;;;;;5029053;28;20033;-54
2021/11/02 12:19:51;;;;;;;6.22;1.02;;;;;;;;;;5014939;28;20048;-52
2021/11/02 12:22:22;;;;;;;4.07;1.63;;;;;;;;;;5023648;28;20502;-54
2021/11/02 12:25:09;;;;;;;5.88;1.20;;;;;;;;;;5024536;28;20485;-54
2021/11/02 12:27:46;;;;;;;3.58;1.10;;;;;;;;;;5079786;28;20417;-54
2021/11/02 12:30:14;;;;;;;2.65;1.27;;;;;;;;;;5045191;28;20493;-53
2021/11/02 12:32:51;;;;;;;4.43;1.48;;;;;;;;;;5040878;28;20053;-54
2021/11/02 12:35:20;;;;;;;2.20;1.65;;;;;;;;;;5045518;28;20045;-54
2021/11/02 12:37:52;;;;;;;3.53;1.85;;;;;;;;;;5047641;28;20045;-54
2021/11/02 12:40:20;;;;;;;4.35;1.20;;;;;;;;;;5040191;28;20037;-54
2021/11/02 12:43:20;;;;;;;5.53;1.20;;;;;;;;;;5045840;28;20152;-54
2021/11/02 12:45:48;;;;;;;3.50;1.00;;;;;;;;;;5047850;28;20497;-53
2021/11/02 12:48:15;;;;;;;2.58;1.10;;;;;;;;;;5030814;28;20484;-53
2021/11/02 12:51:03;;;;;;;6.78;1.00;;;;;;;;;;5048023;28;20523;-52
2021/11/02 12:53:33;;;;;;;3.70;2.25;;;;;;;;;;5047632;28;20099;-52
2021/11/02 12:56:10;;;;;;;4.78;1.08;;;;;;;;;;5031877;28;20049;-54
2021/11/02 12:58:40;;;;;;;1.75;1.10;;;;;;;;;;5045340;28;20045;-53
2021/11/02 13:01:08;;;;;;;2.50;1.00;;;;;;;;;;5046880;28;20135;-53
2021/11/02 13:03:37;;;;;;;4.15;1.00;;;;;;;;;;5038693;28;20490;-53
2021/11/02 13:06:08;;;;;;;1.63;1.10;;;;;;;;;;5047218;28;20055;-53
2021/11/02 13:09:00;;;;;;;2.92;1.00;;;;;;;;;;5047809;28;20473;-54
2021/11/02 13:11:29;;;;;;;7.53;2.20;;;;;;;;;;5046463;28;20052;-54
2021/11/02 13:14:02;;;;;;;2.10;1.20;;;;;;;;;;5031022;28;20084;-53
2021/11/02 13:16:30;;;;;;;1.88;1.50;;;;;;;;;;5036859;28;20029;-54
2021/11/02 13:18:57;;;;;;;3.53;1.08;;;;;;;;;;5044993;28;20180;-53
2021/11/02 13:21:30;;;;;;;1.95;1.23;;;;;;;;;;5041909;28;20064;-54
2021/11/02 13:24:06;;;;;;;6.03;1.17;;;;;;;;;;5046490;28;20037;-54
2021/11/02 13:26:34;;;;;;;2.20;1.05;;;;;;;;;;5045040;28;20053;-54
2021/11/02 13:29:13;;;;;;;4.65;1.85;;;;;;;;;;5046913;28;20038;-54
2021/11/02 13:31:41;;;;;;;6.03;1.20;;;;;;;;;;5040387;28;20041;-54
2021/11/02 13:34:10;;;;;;;2.08;0.90;;;;;;;;;;5041333;28;20045;-54
2021/11/02 13:36:37;;;;;;;7.30;2.83;;;;;;;;;;5042751;28;20103;-53
2021/11/02 13:39:08;;;;;;;2.78;1.38;;;;;;;;;;5025694;28;20095;-53
2021/11/02 13:41:48;;;;;;;4.85;4.00;;;;;;;;;;5028976;28;20350;-54
2021/11/02 13:44:16;;;;;;;7.03;4.72;;;;;;;;;;5022594;28;20044;-54
2021/11/02 13:46:52;;;;;;;6.13;2.13;;;;;;;;;;5025463;28;20381;-51
2021/11/02 13:49:20;;;;;;;2.42;1.77;;;;;;;;;;5017719;28;20034;-54
2021/11/02 13:51:49;;;;;;;1.85;1.20;;;;;;;;;;5022654;28;20048;-51
2021/11/02 13:54:16;;;;;;;4.13;2.22;;;;;;;;;;5022198;28;20063;-53
2021/11/02 13:56:45;;;;;;;3.22;1.10;;;;;;;;;;5029724;28;20045;-52
2021/11/02 13:59:12;;;;;;;4.28;2.63;;;;;;;;;;5027480;28;20492;-54
2021/11/02 14:01:42;;;;;;;3.90;2.42;;;;;;;;;;5025056;28;20432;-54
2021/11/02 14:04:16;;;;;;;3.78;1.77;;;;;;;;;;5024517;28;20046;-54
2021/11/02 14:06:44;;;;;;;4.53;3.10;;;;;;;;;;5020780;28;20053;-51
2021/11/02 14:09:13;;;;;;;9.18;1.55;;;;;;;;;;5016405;28;20481;-53
2021/11/02 14:11:40;;;;;;;4.18;1.98;;;;;;;;;;5020665;28;20033;-55
2021/11/02 14:14:31;;;;;;;2.60;1.48;;;;;;;;;;5018455;28;20045;-54
2021/11/02 14:17:18;;;;;;;1.70;1.60;;;;;;;;;;5012073;28;20077;-55
2021/11/02 14:19:54;;;;;;;2.05;1.52;;;;;;;;;;5025939;28;20076;-54
2021/11/02 14:22:39;;;;;;;2.83;2.40;;;;;;;;;;5019924;28;20033;-53
2021/11/02 14:25:13;;;;;;;1.40;1.27;;;;;;;;;;5011234;28;20400;-53
2021/11/02 14:27:45;;;;;;;5.30;2.33;;;;;;;;;;5022831;28;20046;-53
2021/11/02 14:30:35;;;;;;;2.20;2.00;;;;;;;;;;5015594;28;20048;-54
2021/11/02 14:33:18;;;;;;;2.45;1.83;;;;;;;;;;5024736;28;20042;-54
2021/11/02 14:35:50;;;;;;;2.88;2.45;;;;;;;;;;5026930;28;20045;-53
2021/11/02 14:38:21;;;;;;;1.17;1.08;;;;;;;;;;5021656;28;20045;-54
2021/11/02 14:41:33;;;;;;;6.47;1.10;;;;;;;;;;5033450;28;20061;-53
2021/11/02 14:44:19;;;;;;;3.40;1.15;;;;;;;;;;5025048;28;20052;-53
2021/11/02 14:46:47;;;;;;;3.03;0.82;;;;;;;;;;5027685;28;20064;-53
2021/11/02 14:49:29;;;;;;;5.53;2.05;;;;;;;;;;5016143;28;20121;-47
2021/11/02 14:51:57;;;;;;;3.20;1.42;;;;;;;;;;5028824;28;20116;-54
2021/11/02 14:54:30;;;;;;;1.58;1.30;;;;;;;;;;5021945;28;20041;-54
2021/11/02 14:57:18;;;;;;;3.78;1.15;;;;;;;;;;5015209;28;20135;-54
2021/11/02 14:59:45;;;;;;;;;;;;;;;;;;5030072;28;20420;-54
2021/11/02 15:02:15;;;;;;;5.45;1.30;;;;;;;;;;5029793;28;19932;-54
2021/11/02 15:04:51;;;;;;;8.77;2.40;;;;;;;;;;5021498;28;20047;-54
2021/11/02 15:07:20;;;;;;;4.15;1.20;;;;;;;;;;5028199;28;20046;-54
2021/11/02 15:09:48;;;;;;;2.80;1.00;;;;;;;;;;5016120;28;20046;-54
2021/11/02 15:12:15;;;;;;;4.95;2.15;;;;;;;;;;5032242;28;20041;-54
2021/11/02 15:14:43;;;;;;;4.00;1.20;;;;;;;;;;5031773;28;20049;-53
2021/11/02 15:17:11;;;;;;;5.72;1.10;;;;;;;;;;5032882;28;20037;-54
2021/11/02 15:19:41;;;;;;;5.22;1.60;;;;;;;;;;5030250;28;20033;-52
2021/11/02 15:22:10;;;;;;;3.42;1.88;;;;;;;;;;5033123;28;20526;-54
2021/11/02 15:24:38;;;;;;;4.07;1.23;;;;;;;;;;5030958;28;20481;-53
2021/11/02 15:27:14;;;;;;;3.40;1.02;;;;;;;;;;5029758;28;20060;-53
2021/11/02 15:30:01;;;;;;;7.15;1.60;;;;;;;;;;5033124;28;20033;-53
2021/11/02 15:32:34;;;;;;;2.17;1.25;;;;;;;;;;5030085;28;20133;-54
2021/11/02 15:35:01;;;;;;;;;;;;;;;;;;5030438;28;20062;-54
2021/11/02 15:37:32;;;;;;;3.88;1.25;;;;;;;;;;5030382;28;20016;-52
2021/11/02 15:40:10;;;;;;;2.75;1.50;;;;;;;;;;5029055;28;20041;-54
2021/11/02 15:42:38;;;;;;;1.92;1.42;;;;;;;;;;5029808;28;20507;-54
2021/11/02 15:45:33;;;;;;;6.10;1.25;;;;;;;;;;5029480;28;20540;-53
2021/11/02 15:48:05;;;;;;;4.90;2.22;;;;;;;;;;5029318;28;20444;-53
2021/11/02 15:50:33;;;;;;;4.23;1.43;;;;;;;;;;5028868;28;20062;-54
2021/11/02 15:53:02;;;;;;;6.25;2.42;;;;;;;;;;5029069;28;20469;-54
2021/11/02 15:55:29;;;;;;;2.42;1.95;;;;;;;;;;5028635;28;20054;-54
2021/11/02 15:57:57;;;;;;;6.38;2.88;;;;;;;;;;5030475;28;20678;-53
2021/11/02 16:00:25;;;;;;;6.55;3.47;;;;;;;;;;5028645;28;20045;-53
2021/11/02 16:02:52;;;;;;;4.60;3.55;;;;;;;;;;5029119;28;20139;-53
2021/11/02 16:05:21;;;;;;;2.33;2.22;;;;;;;;;;5030956;28;20120;-53
2021/11/02 16:07:50;;;;;;;3.33;1.77;;;;;;;;;;5029128;28;20572;-48
2021/11/02 16:10:17;;;;;;;5.03;2.17;;;;;;;;;;5030450;28;20553;-53
2021/11/02 16:12:47;;;;;;;7.80;2.83;;;;;;;;;;5023618;28;20049;-53
2021/11/02 16:15:15;;;;;;;5.80;1.75;;;;;;;;;;5020073;28;20041;-53
2021/11/02 16:17:47;;;;;;;5.25;2.00;;;;;;;;;;5018146;28;20041;-53
2021/11/02 16:20:33;;;;;;;8.63;2.00;;;;;;;;;;5029067;28;20037;-51
2021/11/02 16:23:01;;;;;;;4.10;1.77;;;;;;;;;;5030634;28;20092;-54
2021/11/02 16:25:50;;;;;;;6.20;2.97;;;;;;;;;;5017066;28;20092;-54
2021/11/02 16:28:18;;;;;;;9.75;7.25;;;;;;;;;;5026766;28;20088;-53
2021/11/02 16:30:56;;;;;;;9.85;3.67;;;;;;;;;;5016756;28;20099;-50
2021/11/02 16:33:32;;;;;;;5.68;3.63;;;;;;;;;;5020372;28;20060;-54
2021/11/02 16:36:12;;;;;;;4.80;1.35;;;;;;;;;;5025433;28;20067;-54
2021/11/02 16:38:39;;;;;;;4.75;1.52;;;;;;;;;;5026668;28;20466;-53
2021/11/02 16:41:18;;;;;;;3.78;1.33;;;;;;;;;;5021580;28;20129;-53
2021/11/02 16:43:48;;;;;;;4.30;2.28;;;;;;;;;;5022783;28;20128;-51
2021/11/02 16:46:41;;;;;;;5.32;3.05;;;;;;;;;;5030464;28;20041;-53
2021/11/02 16:49:08;;;;;;;4.45;2.78;;;;;;;;;;5031661;28;20573;-52
2021/11/02 16:51:48;;;;;;;4.72;2.33;;;;;;;;;;5024987;28;20401;-53
2021/11/02 16:54:18;;;;;;;3.60;2.10;;;;;;;;;;5031387;28;20048;-53
2021/11/02 16:56:58;;;;;;;3.45;2.40;;;;;;;;;;5023947;28;20042;-53
2021/11/02 16:59:45;;;;;;;6.95;2.58;;;;;;;;;;5018098;28;20034;-53
2021/11/02 17:02:20;;;;;;;13.38;5.95;;;;;;;;;;5031450;28;20052;-54
2021/11/02 17:05:05;;;;;;;15.52;3.88;;;;;;;;;;5024022;28;20029;-53
2021/11/02 17:07:34;;;;;;;4.28;2.03;;;;;;;;;;5026632;28;20045;-51
2021/11/02 17:10:20;;;;;;;2.97;1.67;;;;;;;;;;5020148;28;20045;-53
2021/11/02 17:12:48;;;;;;;3.90;1.30;;;;;;;;;;5028230;28;20436;-53
2021/11/02 17:15:20;;;;;;;5.50;1.10;;;;;;;;;;5029410;28;20116;-56
2021/11/02 17:17:47;;;;;;;5.57;1.20;;;;;;;;;;5030344;28;20042;-55
2021/11/02 17:20:14;;;;;;;7.05;1.10;;;;;;;;;;5025981;28;20044;-56
2021/11/02 17:22:41;;;;;;;2.55;1.08;;;;;;;;;;5012540;28;20042;-56
2021/11/02 17:25:08;;;;;;;6.65;2.17;;;;;;;;;;5023754;28;20033;-54
2021/11/02 17:27:35;;;;;;;4.65;1.75;;;;;;;;;;5018266;28;20053;-56
2021/11/02 17:30:03;;;;;;;3.13;2.13;;;;;;;;;;5020831;28;20049;-54
2021/11/02 17:32:30;;;;;;;4.53;1.40;;;;;;;;;;5027623;28;20452;-54
2021/11/02 17:34:57;;;;;;;6.45;5.80;;;;;;;;;;5029509;28;20057;-55
2021/11/02 17:37:24;;;;;;;3.58;1.85;;;;;;;;;;5028063;28;20049;-55
2021/11/02 17:39:52;;;;;;;6.45;4.47;;;;;;;;;;5027098;28;20087;-55
2021/11/02 17:42:19;;;;;;;10.05;4.85;;;;;;;;;;5026604;28;20095;-56
2021/11/02 17:44:46;;;;;;;10.70;6.75;;;;;;;;;;5028384;28;20029;-55
2021/11/02 17:47:13;;;;;;;7.43;4.82;;;;;;;;;;5029127;28;20064;-56
2021/11/02 17:49:40;;;;;;;15.95;7.88;;;;;;;;;;5021160;28;20030;-56
2021/11/02 17:52:07;;;;;;;20.90;10.50;;;;;;;;;;5019933;28;20029;-53
2021/11/02 17:54:35;;;;;;;15.48;10.55;;;;;;;;;;5014762;28;20046;-55
2021/11/02 17:57:02;;;;;;;9.52;6.00;;;;;;;;;;5025818;28;20034;-56
2021/11/02 17:59:29;;;;;;;8.55;3.65;;;;;;;;;;5027077;28;20030;-55
2021/11/02 18:01:58;;;;;;;5.38;4.32;;;;;;;;;;5027903;28;20030;-55
2021/11/02 18:04:27;;;;;;;6.85;4.78;;;;;;;;;;5028238;28;20065;-55
2021/11/02 18:06:54;;;;;;;3.33;2.92;;;;;;;;;;5011391;28;20042;-55
2021/11/02 18:09:21;;;;;;;4.85;3.17;;;;;;;;;;5026027;28;20049;-55
2021/11/02 18:11:49;;;;;;;9.02;5.25;;;;;;;;;;5017091;28;20050;-55
2021/11/02 18:14:16;;;;;;;11.88;6.60;;;;;;;;;;5020774;28;20050;-55
2021/11/02 18:16:43;;;;;;;9.75;5.53;;;;;;;;;;5020790;28;20041;-53
2021/11/02 18:19:11;;;;;;;11.05;5.00;;;;;;;;;;5021883;28;20038;-55
2021/11/02 18:21:38;;;;;;;8.63;3.70;;;;;;;;;;5027421;28;20041;-55
2021/11/02 18:24:07;;;;;;;7.80;2.90;;;;;;;;;;5017459;28;20060;-55
2021/11/02 18:26:34;;;;;;;4.18;2.63;;;;;;;;;;5029435;28;20056;-55
2021/11/02 18:29:03;;;;;;;5.20;2.55;;;;;;;;;;5024573;28;20056;-55
2021/11/02 18:31:29;;;;;;;9.75;3.28;;;;;;;;;;5028782;28;20041;-54
2021/11/02 18:33:56;;;;;;;4.18;3.78;;;;;;;;;;5024668;28;20045;-55
2021/11/02 18:36:25;;;;;;;11.02;6.60;;;;;;;;;;5013964;28;20626;-54
2021/11/02 18:38:52;;;;;;;9.55;2.97;;;;;;;;;;5028158;28;20125;-55
2021/11/02 18:41:22;;;;;;;7.22;4.60;;;;;;;;;;5027476;28;20090;-55
2021/11/02 18:43:49;;;;;;;6.45;2.80;;;;;;;;;;5014828;28;20070;-56
2021/11/02 18:46:15;;;;;;;5.78;3.63;;;;;;;;;;5026903;28;20037;-56
2021/11/02 18:48:42;;;;;;;8.25;3.78;;;;;;;;;;5027696;28;20046;-55
2021/11/02 18:51:09;;;;;;;9.55;3.95;;;;;;;;;;5025464;28;20050;-55
2021/11/02 18:53:37;;;;;;;3.85;3.55;;;;;;;;;;5024589;28;20056;-56
2021/11/02 18:56:04;;;;;;;9.73;3.60;;;;;;;;;;5025756;28;20042;-55
2021/11/02 18:58:31;;;;;;;7.65;3.47;;;;;;;;;;5022506;28;20053;-56
2021/11/02 19:00:58;;;;;;;3.78;2.90;;;;;;;;;;5026734;28;20056;-56
2021/11/02 19:03:25;;;;;;;6.28;4.20;;;;;;;;;;5029954;28;20452;-56
2021/11/02 19:05:52;;;;;;;8.90;5.63;;;;;;;;;;5021644;28;20044;-56
2021/11/02 19:08:19;;;;;;;5.93;4.70;;;;;;;;;;5028728;28;20041;-56
2021/11/02 19:10:47;;;;;;;5.45;4.95;;;;;;;;;;5019611;28;20037;-55
2021/11/02 19:13:14;;;;;;;10.73;5.10;;;;;;;;;;5023545;28;20120;-56
2021/11/02 19:15:43;;;;;;;6.05;3.58;;;;;;;;;;5029346;28;20064;-56
2021/11/02 19:18:10;;;;;;;10.07;6.20;;;;;;;;;;5024031;28;20077;-56
2021/11/02 19:20:38;;;;;;;7.30;4.80;;;;;;;;;;5031504;28;20100;-56
2021/11/02 19:23:04;;;;;;;10.48;3.65;;;;;;;;;;5029616;28;20033;-53
2021/11/02 19:25:33;;;;;;;5.55;4.25;;;;;;;;;;5022986;28;20037;-55
2021/11/02 19:28:01;;;;;;;6.28;3.15;;;;;;;;;;5020519;28;20049;-55
2021/11/02 19:30:27;;;;;;;6.63;2.95;;;;;;;;;;5027807;28;20104;-55
2021/11/02 19:32:55;;;;;;;4.93;2.22;;;;;;;;;;5016489;28;20033;-56
2021/11/02 19:35:22;;;;;;;2.22;1.50;;;;;;;;;;5021728;28;20449;-55
2021/11/02 19:37:49;;;;;;;9.07;4.43;;;;;;;;;;5023489;28;20041;-55
2021/11/02 19:40:16;;;;;;;4.28;1.90;;;;;;;;;;5025049;28;20562;-56
2021/11/02 19:42:44;;;;;;;6.35;3.92;;;;;;;;;;5029067;28;20067;-55
2021/11/02 19:45:11;;;;;;;8.75;3.25;;;;;;;;;;5027832;28;20563;-53
2021/11/02 19:47:44;;;;;;;5.13;3.60;;;;;;;;;;5032371;28;20124;-55
2021/11/02 19:50:12;;;;;;;9.65;5.57;;;;;;;;;;5027663;28;20045;-55
2021/11/02 19:52:42;;;;;;;9.02;8.10;;;;;;;;;;5014552;28;20112;-55
2021/11/02 19:55:16;;;;;;;11.10;7.28;;;;;;;;;;5030960;28;20061;-55
2021/11/02 19:57:43;;;;;;;12.75;4.97;;;;;;;;;;5016666;28;20038;-55
2021/11/02 20:00:11;;;;;;;6.65;5.45;;;;;;;;;;5030416;28;20045;-55
2021/11/02 20:02:38;;;;;;;9.05;8.07;;;;;;;;;;5030475;28;20042;-56
2021/11/02 20:05:06;;;;;;;5.15;4.72;;;;;;;;;;5013468;28;20568;-52
2021/11/02 20:07:36;;;;;;;6.80;6.25;;;;;;;;;;5025198;28;20099;-55
2021/11/02 20:10:04;;;;;;;5.88;4.25;;;;;;;;;;5030303;28;20049;-55